createdAt,value
2019-03-27T00:01:02.735Z,4.67
2019-03-27T00:03:31.190Z,4.73
2019-03-27T00:06:00.019Z,4.23
2019-03-27T00:08:28.671Z,3.10
2019-03-27T00:10:57.126Z,5.20
2019-03-27T00:13:25.585Z,4.27
2019-03-27T00:15:54.073Z,3.90
2019-03-27T00:18:22.529Z,5.60
2019-03-27T00:20:51.569Z,4.60
2019-03-27T00:23:20.101Z,3.33
2019-03-27T00:25:48.702Z,3.33
2019-03-27T00:28:17.148Z,2.47
2019-03-27T00:30:45.634Z,2.93
2019-03-27T00:33:14.077Z,5.73
2019-03-27T00:35:42.602Z,3.20
2019-03-27T00:38:11.101Z,3.63
2019-03-27T00:40:39.626Z,3.70
2019-03-27T00:43:08.074Z,5.23
2019-03-27T00:45:36.583Z,6.67
2019-03-27T00:48:05.197Z,2.97
2019-03-27T00:50:33.647Z,2.43
2019-03-27T00:53:02.155Z,4.73
2019-03-27T00:55:30.688Z,2.30
2019-03-27T00:57:59.142Z,3.73
2019-03-27T01:00:30.587Z,4.50
2019-03-27T01:02:59.047Z,4.37
2019-03-27T01:05:27.580Z,3.93
2019-03-27T01:07:56.152Z,4.87
2019-03-27T01:10:24.751Z,3.60
2019-03-27T01:12:53.272Z,4.80
2019-03-27T01:15:21.769Z,3.10
2019-03-27T01:17:50.213Z,2.90
2019-03-27T01:20:18.672Z,4.30
2019-03-27T01:22:47.155Z,2.97
2019-03-27T01:25:15.669Z,6.57
2019-03-27T01:27:44.115Z,4.70
2019-03-27T01:30:13.275Z,2.17
2019-03-27T01:32:41.733Z,2.83
2019-03-27T01:35:10.317Z,4.13
2019-03-27T01:37:38.872Z,6.03
2019-03-27T01:40:07.970Z,4.00
2019-03-27T01:42:36.406Z,5.00
2019-03-27T01:45:07.969Z,4.03
2019-03-27T01:47:36.521Z,4.23
2019-03-27T01:50:07.568Z,3.63
2019-03-27T01:52:36.060Z,4.47
2019-03-27T01:55:06.386Z,5.50
2019-03-27T01:57:34.880Z,7.33
2019-03-27T02:00:04.910Z,4.43
2019-03-27T02:02:33.364Z,5.10
2019-03-27T02:05:01.816Z,4.77
2019-03-27T02:07:30.319Z,5.30
2019-03-27T02:09:58.767Z,3.43
2019-03-27T02:12:27.220Z,8.20
2019-03-27T02:14:55.721Z,4.40
2019-03-27T02:17:24.193Z,3.97
2019-03-27T02:20:12.173Z,6.60
2019-03-27T02:22:40.679Z,4.10
2019-03-27T02:25:09.679Z,5.90
2019-03-27T02:27:39.992Z,6.30
2019-03-27T02:30:09.290Z,6.80
2019-03-27T02:32:37.777Z,5.77
2019-03-27T02:35:06.696Z,4.73
2019-03-27T02:37:35.215Z,5.77
2019-03-27T02:40:04.646Z,5.73
2019-03-27T02:42:33.205Z,7.83
2019-03-27T02:45:01.660Z,5.43
2019-03-27T02:47:30.192Z,9.20
2019-03-27T02:49:58.769Z,5.93
2019-03-27T02:52:27.223Z,7.17
2019-03-27T02:54:55.667Z,8.00
2019-03-27T02:57:24.241Z,6.97
2019-03-27T02:59:52.691Z,8.77
2019-03-27T03:02:21.140Z,9.17
2019-03-27T03:04:49.714Z,12.50
2019-03-27T03:07:18.171Z,9.30
2019-03-27T03:09:46.685Z,7.43
2019-03-27T03:12:15.189Z,11.50
2019-03-27T03:14:43.721Z,12.27
2019-03-27T03:17:12.181Z,10.43
2019-03-27T03:19:41.193Z,9.20
2019-03-27T03:22:09.670Z,10.77
2019-03-27T03:24:38.181Z,9.17
2019-03-27T03:27:06.757Z,14.30
2019-03-27T03:29:35.291Z,9.80
2019-03-27T03:32:04.007Z,8.60
2019-03-27T03:34:32.643Z,8.63
2019-03-27T03:37:01.171Z,9.63
2019-03-27T03:39:29.652Z,9.13
2019-03-27T03:41:58.239Z,11.30
2019-03-27T03:44:26.869Z,14.10
2019-03-27T03:47:00.053Z,11.67
2019-03-27T03:49:25.826Z,10.13
2019-03-27T03:51:54.384Z,14.70
2019-03-27T03:54:23.381Z,8.30
2019-03-27T03:56:54.106Z,12.10
2019-03-27T03:59:23.881Z,9.20
2019-03-27T04:01:54.242Z,13.37
2019-03-27T04:04:23.302Z,10.27
2019-03-27T04:06:51.796Z,12.33
2019-03-27T04:09:20.278Z,15.90
2019-03-27T04:11:48.852Z,8.97
2019-03-27T04:14:17.324Z,10.70
2019-03-27T04:16:45.851Z,11.27
2019-03-27T04:19:14.365Z,8.93
2019-03-27T04:21:43.075Z,11.23
2019-03-27T04:24:11.544Z,15.57
2019-03-27T04:26:40.114Z,8.07
2019-03-27T04:29:08.554Z,12.73
2019-03-27T04:31:37.085Z,9.87
2019-03-27T04:34:05.594Z,10.30
2019-03-27T04:36:34.118Z,8.70
2019-03-27T04:39:03.564Z,10.30
2019-03-27T04:41:32.128Z,13.43
2019-03-27T04:44:00.579Z,8.63
2019-03-27T04:46:29.107Z,8.63
2019-03-27T04:48:57.744Z,10.73
2019-03-27T04:51:28.738Z,15.17
2019-03-27T04:53:57.213Z,10.70
2019-03-27T04:56:25.711Z,10.10
2019-03-27T04:58:54.154Z,11.23
2019-03-27T05:01:22.609Z,11.47
2019-03-27T05:03:51.379Z,8.13
2019-03-27T05:06:19.825Z,9.70
2019-03-27T05:08:48.409Z,13.53
2019-03-27T05:11:17.033Z,11.73
2019-03-27T05:13:45.618Z,12.13
2019-03-27T05:16:14.085Z,15.90
2019-03-27T05:18:42.661Z,13.20
2019-03-27T05:21:11.215Z,17.63
2019-03-27T05:23:39.708Z,17.80
2019-03-27T05:26:08.165Z,15.30
2019-03-27T05:28:36.691Z,20.17
2019-03-27T05:31:05.176Z,17.50
2019-03-27T05:33:33.664Z,24.67
2019-03-27T05:36:02.167Z,16.30
2019-03-27T05:38:30.778Z,20.67
2019-03-27T05:40:59.258Z,14.87
2019-03-27T05:43:27.719Z,23.30
2019-03-27T05:45:56.225Z,19.90
2019-03-27T05:48:24.676Z,17.97
2019-03-27T05:50:53.127Z,20.87
2019-03-27T05:53:21.638Z,23.03
2019-03-27T05:55:50.100Z,15.50
2019-03-27T05:58:18.577Z,12.90
2019-03-27T06:00:47.111Z,18.60
2019-03-27T06:03:15.602Z,23.23
2019-03-27T06:05:44.205Z,22.93
2019-03-27T06:08:32.103Z,21.70
2019-03-27T06:11:00.565Z,16.17
2019-03-27T06:13:29.019Z,24.37
2019-03-27T06:15:57.519Z,19.40
2019-03-27T06:18:25.981Z,25.37
2019-03-27T06:20:54.572Z,23.23
2019-03-27T06:23:23.345Z,23.63
2019-03-27T06:25:51.792Z,25.73
2019-03-27T06:28:20.240Z,21.90
2019-03-27T06:30:48.740Z,21.63
2019-03-27T06:33:17.209Z,25.33
2019-03-27T06:35:45.720Z,24.03
2019-03-27T06:38:14.227Z,22.67
2019-03-27T06:40:42.689Z,18.07
2019-03-27T06:43:11.144Z,22.70
2019-03-27T06:45:39.812Z,20.13
2019-03-27T06:48:08.260Z,20.87
2019-03-27T06:50:36.699Z,20.03
2019-03-27T06:53:05.193Z,17.30
2019-03-27T06:55:33.643Z,20.00
2019-03-27T06:58:02.099Z,16.60
2019-03-27T07:00:35.372Z,15.23
2019-03-27T07:03:04.460Z,18.03
2019-03-27T07:05:32.989Z,19.17
2019-03-27T07:08:02.107Z,19.20
2019-03-27T07:10:30.565Z,19.00
2019-03-27T07:12:59.015Z,16.87
2019-03-27T07:15:27.527Z,18.97
2019-03-27T07:17:55.984Z,16.83
2019-03-27T07:20:44.017Z,18.37
2019-03-27T07:23:12.473Z,15.60
2019-03-27T07:25:41.237Z,14.30
2019-03-27T07:28:09.849Z,11.10
2019-03-27T07:30:38.299Z,12.90
2019-03-27T07:33:07.096Z,9.87
2019-03-27T07:35:35.597Z,12.23
2019-03-27T07:38:04.050Z,9.57
2019-03-27T07:40:32.578Z,9.37
2019-03-27T07:43:01.157Z,9.40
2019-03-27T07:45:29.686Z,10.17
2019-03-27T07:47:58.136Z,10.90
2019-03-27T07:50:26.748Z,6.47
2019-03-27T07:52:55.279Z,11.70
2019-03-27T07:55:23.726Z,7.07
2019-03-27T07:57:52.247Z,57.63
2019-03-27T08:00:23.130Z,6.50
2019-03-27T08:02:51.589Z,8.67
2019-03-27T08:05:20.087Z,9.00
2019-03-27T08:07:48.659Z,7.77
2019-03-27T08:10:17.115Z,8.00
2019-03-27T08:12:45.608Z,8.20
2019-03-27T08:15:14.508Z,9.90
2019-03-27T08:17:43.511Z,8.30
2019-03-27T08:20:13.920Z,9.80
2019-03-27T08:22:42.384Z,11.63
2019-03-27T08:25:11.577Z,7.77
2019-03-27T08:27:40.069Z,10.73
2019-03-27T08:30:13.629Z,6.63
2019-03-27T08:32:42.150Z,9.53
2019-03-27T08:35:11.570Z,8.43
2019-03-27T08:37:40.164Z,8.27
2019-03-27T08:40:09.563Z,7.13
2019-03-27T08:42:38.154Z,5.97
2019-03-27T08:45:08.387Z,7.23
2019-03-27T08:47:37.068Z,7.00
2019-03-27T08:50:09.996Z,5.23
2019-03-27T08:52:38.438Z,5.60
2019-03-27T08:55:07.637Z,5.67
2019-03-27T08:57:36.380Z,5.10
2019-03-27T09:00:07.733Z,6.30
2019-03-27T09:02:55.657Z,6.77
2019-03-27T09:05:24.104Z,8.60
2019-03-27T09:07:52.577Z,6.80
2019-03-27T09:10:21.235Z,4.43
2019-03-27T09:12:49.697Z,5.97
2019-03-27T09:15:18.228Z,5.80
2019-03-27T09:17:46.737Z,7.10
2019-03-27T09:20:15.492Z,6.57
2019-03-27T09:22:43.960Z,7.27
2019-03-27T09:25:12.524Z,7.83
2019-03-27T09:27:41.000Z,4.43
2019-03-27T09:30:13.397Z,7.07
2019-03-27T09:32:42.078Z,3.90
2019-03-27T09:35:10.766Z,4.43
2019-03-27T09:37:39.288Z,6.53
2019-03-27T09:40:08.111Z,5.33
2019-03-27T09:42:36.739Z,6.40
2019-03-27T09:45:08.500Z,4.67
2019-03-27T09:47:37.435Z,4.67
2019-03-27T09:50:06.733Z,5.73
2019-03-27T09:52:35.255Z,3.97
2019-03-27T09:55:05.725Z,8.20
2019-03-27T09:57:34.188Z,4.20
2019-03-27T10:00:02.908Z,4.80
2019-03-27T10:02:31.404Z,4.27
2019-03-27T10:04:59.862Z,4.73
2019-03-27T10:07:28.490Z,5.17
2019-03-27T10:09:57.127Z,4.20
2019-03-27T10:12:25.649Z,4.23
2019-03-27T10:14:54.199Z,3.00
2019-03-27T10:17:42.259Z,3.57
2019-03-27T10:20:13.606Z,2.93
2019-03-27T10:22:41.079Z,2.93
2019-03-27T10:25:09.942Z,4.03
2019-03-27T10:27:38.391Z,3.23
2019-03-27T10:30:07.476Z,2.70
2019-03-27T10:32:35.967Z,2.63
2019-03-27T10:35:06.757Z,2.50
2019-03-27T10:37:35.208Z,3.63
2019-03-27T10:40:05.936Z,2.67
2019-03-27T10:42:34.460Z,2.80
2019-03-27T10:45:03.125Z,2.80
2019-03-27T10:47:31.618Z,2.87
2019-03-27T10:50:00.145Z,3.13
2019-03-27T10:52:29.008Z,2.97
2019-03-27T10:54:57.569Z,2.83
2019-03-27T10:57:26.105Z,2.80
2019-03-27T10:59:54.581Z,2.53
2019-03-27T11:02:23.324Z,2.37
2019-03-27T11:04:51.782Z,2.43
2019-03-27T11:07:20.238Z,2.70
2019-03-27T11:09:48.871Z,2.30
2019-03-27T11:12:17.432Z,2.30
2019-03-27T11:14:45.969Z,3.17
2019-03-27T11:17:14.615Z,2.37
2019-03-27T11:19:43.459Z,2.10
2019-03-27T11:22:11.957Z,2.10
2019-03-27T11:24:40.548Z,2.10
2019-03-27T11:27:08.999Z,1.80
2019-03-27T11:29:37.531Z,3.30
2019-03-27T11:32:06.136Z,2.40
2019-03-27T11:34:34.664Z,2.17
2019-03-27T11:37:03.123Z,2.27
2019-03-27T11:39:31.706Z,2.20
2019-03-27T11:42:00.950Z,2.17
2019-03-27T11:44:29.692Z,2.00
2019-03-27T11:46:58.258Z,1.87
2019-03-27T11:49:26.726Z,1.70
2019-03-27T11:51:55.180Z,1.70
2019-03-27T11:54:23.795Z,1.80
2019-03-27T11:56:52.246Z,3.03
2019-03-27T11:59:20.700Z,1.67
2019-03-27T12:01:49.188Z,1.67
2019-03-27T12:04:17.711Z,2.50
2019-03-27T12:06:46.170Z,1.70
2019-03-27T12:09:14.679Z,1.50
2019-03-27T12:11:43.279Z,1.83
2019-03-27T12:14:12.343Z,1.90
2019-03-27T12:16:41.337Z,1.57
2019-03-27T12:19:09.811Z,1.57
2019-03-27T12:21:38.315Z,2.40
2019-03-27T12:24:06.820Z,1.60
2019-03-27T12:26:35.277Z,2.43
2019-03-27T12:29:03.802Z,2.50
2019-03-27T12:31:32.309Z,1.50
2019-03-27T12:34:00.770Z,1.80
2019-03-27T12:36:29.283Z,1.80
2019-03-27T12:38:57.789Z,1.70
2019-03-27T12:41:26.370Z,1.97
2019-03-27T12:43:54.899Z,4.73
2019-03-27T12:46:23.480Z,3.63
2019-03-27T12:48:52.020Z,1.73
2019-03-27T12:51:20.483Z,3.13
2019-03-27T12:53:48.987Z,3.20
2019-03-27T12:56:17.440Z,2.73
2019-03-27T12:58:45.884Z,4.60
2019-03-27T13:01:14.378Z,2.40
2019-03-27T13:03:44.547Z,3.70
2019-03-27T13:06:13.175Z,4.17
2019-03-27T13:08:41.687Z,2.60
2019-03-27T13:11:10.139Z,2.10
2019-03-27T13:13:38.581Z,2.87
2019-03-27T13:16:07.082Z,3.50
2019-03-27T13:18:35.554Z,2.53
2019-03-27T13:21:04.080Z,3.40
2019-03-27T13:23:32.574Z,4.10
2019-03-27T13:26:01.036Z,4.07
2019-03-27T13:28:29.602Z,2.13
2019-03-27T13:30:58.105Z,2.70
2019-03-27T13:33:26.667Z,4.47
2019-03-27T13:35:55.187Z,4.17
2019-03-27T13:38:23.719Z,4.57
2019-03-27T13:40:52.168Z,5.60
2019-03-27T13:43:20.641Z,4.60
2019-03-27T13:45:49.149Z,2.60
2019-03-27T13:48:17.704Z,4.67
2019-03-27T13:50:46.215Z,3.77
2019-03-27T13:53:14.838Z,4.70
2019-03-27T13:55:43.399Z,3.03
2019-03-27T13:58:11.924Z,5.17
2019-03-27T14:00:40.552Z,3.30
2019-03-27T14:03:09.018Z,3.63
2019-03-27T14:05:56.839Z,3.03
2019-03-27T14:08:25.429Z,2.43
2019-03-27T14:10:53.891Z,2.03
2019-03-27T14:13:22.547Z,5.53
2019-03-27T14:15:50.996Z,4.33
2019-03-27T14:18:19.448Z,1.90
2019-03-27T14:20:47.959Z,4.70
2019-03-27T14:23:16.489Z,3.30
2019-03-27T14:25:47.585Z,4.70
2019-03-27T14:28:16.173Z,5.23
2019-03-27T14:30:52.508Z,5.27
2019-03-27T14:33:21.658Z,5.07
2019-03-27T14:35:50.110Z,5.07
2019-03-27T14:38:18.717Z,3.63
2019-03-27T14:40:47.283Z,4.17
2019-03-27T14:43:15.812Z,4.50
2019-03-27T14:45:44.505Z,2.93
2019-03-27T14:48:13.016Z,6.50
2019-03-27T14:50:41.488Z,4.10
2019-03-27T14:53:10.147Z,3.80
2019-03-27T14:55:38.639Z,5.40
2019-03-27T14:58:07.112Z,4.03
2019-03-27T15:00:35.745Z,4.47
2019-03-27T15:03:04.381Z,4.83
2019-03-27T15:05:32.829Z,3.20
2019-03-27T15:08:04.077Z,3.30
2019-03-27T15:10:31.672Z,4.00
2019-03-27T15:13:00.330Z,4.20
2019-03-27T15:15:28.786Z,4.00
2019-03-27T15:17:57.291Z,3.43
2019-03-27T15:20:25.754Z,3.53
2019-03-27T15:22:54.220Z,4.33
2019-03-27T15:25:22.799Z,4.47
2019-03-27T15:27:51.328Z,3.40
2019-03-27T15:30:20.035Z,3.17
2019-03-27T15:32:48.619Z,4.87
2019-03-27T15:35:17.074Z,3.95
2019-03-27T15:37:45.533Z,2.92
2019-03-27T15:40:15.017Z,2.25
2019-03-27T15:42:43.795Z,3.90
2019-03-27T15:45:12.850Z,2.75
2019-03-27T15:47:41.441Z,3.45
2019-03-27T15:50:09.961Z,4.42
2019-03-27T15:52:38.514Z,3.33
2019-03-27T15:55:08.363Z,4.28
2019-03-27T15:57:36.854Z,4.55
2019-03-27T16:00:06.318Z,4.10
2019-03-27T16:02:34.898Z,2.42
2019-03-27T16:05:04.282Z,3.42
2019-03-27T16:07:32.792Z,4.58
2019-03-27T16:10:01.420Z,3.80
2019-03-27T16:12:29.869Z,2.30
2019-03-27T16:14:58.329Z,5.20
2019-03-27T16:17:27.253Z,5.90
2019-03-27T16:19:55.709Z,4.33
2019-03-27T16:22:24.177Z,4.43
2019-03-27T16:24:52.687Z,4.87
2019-03-27T16:27:21.275Z,6.77
2019-03-27T16:29:50.034Z,6.73
2019-03-27T16:32:18.558Z,3.70
2019-03-27T16:34:47.052Z,4.73
2019-03-27T16:37:15.645Z,4.30
2019-03-27T16:39:44.169Z,4.37
2019-03-27T16:42:12.768Z,6.50
2019-03-27T16:44:41.377Z,3.53
2019-03-27T16:47:10.017Z,4.43
2019-03-27T16:49:38.528Z,4.23
2019-03-27T16:52:07.121Z,4.30
2019-03-27T16:54:35.777Z,4.73
2019-03-27T16:57:04.375Z,6.40
2019-03-27T16:59:32.834Z,4.17
2019-03-27T17:02:01.343Z,5.43
2019-03-27T17:04:29.990Z,6.73
2019-03-27T17:06:58.481Z,4.40
2019-03-27T17:09:27.058Z,5.50
2019-03-27T17:11:55.596Z,5.37
2019-03-27T17:14:24.049Z,4.57
2019-03-27T17:16:52.619Z,3.67
2019-03-27T17:19:21.086Z,5.33
2019-03-27T17:21:52.159Z,9.27
2019-03-27T17:24:20.901Z,6.33
2019-03-27T17:26:49.433Z,3.93
2019-03-27T17:29:17.897Z,2.83
2019-03-27T17:31:53.079Z,5.53
2019-03-27T17:34:21.537Z,5.87
2019-03-27T17:36:50.022Z,7.40
2019-03-27T17:39:18.739Z,8.17
2019-03-27T17:41:47.490Z,3.23
2019-03-27T17:44:16.106Z,2.47
2019-03-27T17:46:44.766Z,4.87
2019-03-27T17:49:13.305Z,7.30
2019-03-27T17:51:41.828Z,5.73
2019-03-27T17:54:20.490Z,9.37
2019-03-27T17:56:40.761Z,5.80
2019-03-27T17:59:09.268Z,7.07
2019-03-27T18:01:37.789Z,6.70
2019-03-27T18:04:06.310Z,8.90
2019-03-27T18:06:34.762Z,6.10
2019-03-27T18:09:03.703Z,4.90
2019-03-27T18:11:32.239Z,3.00
2019-03-27T18:14:00.686Z,5.40
2019-03-27T18:16:29.272Z,7.10
2019-03-27T18:18:57.797Z,3.40
2019-03-27T18:21:26.301Z,4.90
2019-03-27T18:23:54.921Z,4.30
2019-03-27T18:26:23.464Z,5.67
2019-03-27T18:28:51.931Z,4.53
2019-03-27T18:31:20.583Z,7.30
2019-03-27T18:33:49.603Z,4.17
2019-03-27T18:36:18.141Z,3.60
2019-03-27T18:38:46.780Z,7.90
2019-03-27T18:41:15.314Z,7.33
2019-03-27T18:43:43.913Z,5.70
2019-03-27T18:46:12.471Z,7.90
2019-03-27T18:48:40.947Z,7.40
2019-03-27T18:51:09.480Z,6.33
2019-03-27T18:53:37.978Z,8.30
2019-03-27T18:56:06.518Z,8.83
2019-03-27T18:58:35.043Z,10.90
2019-03-27T19:01:03.706Z,7.47
2019-03-27T19:03:32.312Z,6.63
2019-03-27T19:06:00.914Z,7.57
2019-03-27T19:08:29.506Z,8.53
2019-03-27T19:10:58.024Z,10.60
2019-03-27T19:13:26.553Z,11.43
2019-03-27T19:15:55.124Z,5.87
2019-03-27T19:18:23.798Z,9.47
2019-03-27T19:20:52.456Z,8.07
2019-03-27T19:23:21.038Z,5.50
2019-03-27T19:25:49.701Z,5.17
2019-03-27T19:28:18.234Z,6.00
2019-03-27T19:30:46.847Z,6.07
2019-03-27T19:33:15.371Z,5.57
2019-03-27T19:35:43.884Z,7.53
2019-03-27T19:38:12.511Z,6.33
2019-03-27T19:40:40.951Z,6.00
2019-03-27T19:43:09.434Z,9.30
2019-03-27T19:45:37.997Z,12.73
2019-03-27T19:48:07.365Z,5.33
2019-03-27T19:50:35.912Z,11.63
2019-03-27T19:53:04.564Z,6.33
2019-03-27T19:55:33.021Z,7.27
2019-03-27T19:58:01.586Z,5.70
2019-03-27T20:00:30.294Z,7.73
2019-03-27T20:02:58.837Z,10.57
2019-03-27T20:05:27.298Z,8.87
2019-03-27T20:07:55.951Z,6.77
2019-03-27T20:10:24.521Z,9.03
2019-03-27T20:12:52.966Z,8.13
2019-03-27T20:15:21.517Z,9.40
2019-03-27T20:17:51.115Z,8.97
2019-03-27T20:20:19.572Z,11.23
2019-03-27T20:22:48.169Z,7.77
2019-03-27T20:25:16.772Z,10.00
2019-03-27T20:27:45.233Z,11.00
2019-03-27T20:30:18.889Z,8.97
2019-03-27T20:32:47.471Z,11.07
2019-03-27T20:35:24.702Z,13.30
2019-03-27T20:37:53.235Z,9.13
2019-03-27T20:40:21.719Z,8.77
2019-03-27T20:42:52.218Z,6.87
2019-03-27T20:45:20.683Z,7.13
2019-03-27T20:47:50.564Z,10.37
2019-03-27T20:50:19.286Z,7.17
2019-03-27T20:52:47.770Z,7.40
2019-03-27T20:55:29.327Z,8.90
2019-03-27T20:57:47.140Z,9.27
2019-03-27T21:00:16.749Z,6.07
2019-03-27T21:02:45.290Z,7.87
2019-03-27T21:05:14.343Z,9.57
2019-03-27T21:07:42.801Z,7.73
2019-03-27T21:10:11.869Z,10.60
2019-03-27T21:12:40.442Z,6.57
2019-03-27T21:15:25.836Z,8.73
2019-03-27T21:17:54.915Z,17.50
2019-03-27T21:20:23.510Z,8.70
2019-03-27T21:22:52.203Z,7.70
2019-03-27T21:25:20.722Z,8.10
2019-03-27T21:27:49.203Z,11.07
2019-03-27T21:30:18.249Z,10.43
2019-03-27T21:32:46.919Z,7.57
2019-03-27T21:35:15.512Z,8.47
2019-03-27T21:37:44.037Z,10.67
2019-03-27T21:40:12.914Z,10.77
2019-03-27T21:42:41.375Z,8.67
2019-03-27T21:45:32.245Z,11.83
2019-03-27T21:48:01.039Z,12.97
2019-03-27T21:50:29.576Z,15.10
2019-03-27T21:53:00.861Z,10.23
2019-03-27T21:55:42.144Z,8.60
2019-03-27T21:58:01.473Z,11.47
2019-03-27T22:00:40.208Z,10.03
2019-03-27T22:03:09.151Z,11.80
2019-03-27T22:05:37.836Z,15.27
2019-03-27T22:08:06.942Z,13.23
2019-03-27T22:10:54.824Z,9.67
2019-03-27T22:13:23.438Z,14.40
2019-03-27T22:15:52.512Z,13.40
2019-03-27T22:18:20.950Z,15.37
2019-03-27T22:20:49.526Z,12.13
2019-03-27T22:23:18.059Z,11.77
2019-03-27T22:25:46.600Z,15.10
2019-03-27T22:28:15.235Z,14.50
2019-03-27T22:30:43.712Z,18.40
2019-03-27T22:33:12.200Z,16.83
2019-03-27T22:35:40.793Z,16.87
2019-03-27T22:38:09.369Z,16.03
2019-03-27T22:40:37.858Z,16.20
2019-03-27T22:43:06.454Z,15.80
2019-03-27T22:45:35.004Z,13.40
2019-03-27T22:48:03.966Z,12.33
2019-03-27T22:50:32.479Z,15.43
2019-03-27T22:53:01.306Z,15.07
2019-03-27T22:55:29.842Z,15.57
2019-03-27T22:57:58.506Z,15.30
2019-03-27T23:00:38.063Z,15.33
2019-03-27T23:03:17.751Z,15.47
2019-03-27T23:05:36.836Z,15.27
2019-03-27T23:08:05.389Z,14.53
2019-03-27T23:10:33.976Z,16.20
2019-03-27T23:13:02.445Z,13.57
2019-03-27T23:15:30.989Z,17.80
2019-03-27T23:17:59.694Z,18.57
2019-03-27T23:20:28.148Z,21.37
2019-03-27T23:22:56.617Z,18.13
2019-03-27T23:25:25.138Z,17.00
2019-03-27T23:27:53.734Z,14.40
2019-03-27T23:30:22.198Z,22.53
2019-03-27T23:32:50.848Z,24.47
2019-03-27T23:35:19.307Z,22.10
2019-03-27T23:37:47.842Z,21.10
2019-03-27T23:40:16.516Z,21.63
2019-03-27T23:42:45.036Z,23.17
2019-03-27T23:45:15.092Z,20.87
2019-03-27T23:47:43.784Z,23.20
2019-03-27T23:50:12.631Z,15.90
2019-03-27T23:52:41.148Z,16.27
2019-03-27T23:55:09.807Z,15.63
2019-03-27T23:57:38.312Z,15.37
